createdAt,value
2023-02-27T00:00:17.915Z,100953.28
2023-02-27T00:03:06.443Z,100962.78
2023-02-27T00:05:34.913Z,100955.71
2023-02-27T00:08:03.392Z,100952.56
2023-02-27T00:10:31.831Z,100949.02
2023-02-27T00:13:00.336Z,100942.84
2023-02-27T00:15:31.087Z,100942.48
2023-02-27T00:18:00.354Z,100944.96
2023-02-27T00:20:28.832Z,100948.14
2023-02-27T00:22:57.404Z,100946.21
2023-02-27T00:25:25.973Z,100947.09
2023-02-27T00:27:54.430Z,100945.14
2023-02-27T00:30:22.938Z,100950.59
2023-02-27T00:32:51.492Z,100954.64
2023-02-27T00:35:20.722Z,100948.29
2023-02-27T00:37:49.171Z,100950.93
2023-02-27T00:40:18.298Z,100953.73
2023-02-27T00:42:48.778Z,100956.38
2023-02-27T00:45:17.314Z,100956.56
2023-02-27T00:47:47.371Z,100958.15
2023-02-27T00:50:17.213Z,100963.44
2023-02-27T00:52:45.617Z,100959.74
2023-02-27T00:55:14.129Z,100957.11
2023-02-27T00:57:42.714Z,100953.75
2023-02-27T01:00:12.210Z,100959.38
2023-02-27T01:02:40.708Z,100957.60
2023-02-27T01:05:10.336Z,100958.81
2023-02-27T01:07:38.972Z,100961.46
2023-02-27T01:10:10.876Z,100960.95
2023-02-27T01:12:41.091Z,100956.23
2023-02-27T01:15:11.916Z,100955.15
2023-02-27T01:17:40.480Z,100958.15
2023-02-27T01:20:13.141Z,100963.10
2023-02-27T01:22:41.991Z,100966.45
2023-02-27T01:25:11.076Z,100964.71
2023-02-27T01:27:40.993Z,100970.00
2023-02-27T01:30:11.931Z,100970.71
2023-02-27T01:32:40.566Z,100972.30
2023-02-27T01:35:09.402Z,100979.33
2023-02-27T01:37:38.477Z,100977.88
2023-02-27T01:40:09.041Z,100974.55
2023-02-27T01:42:37.491Z,100973.30
2023-02-27T01:45:12.518Z,100982.13
2023-02-27T01:47:50.374Z,100991.66
2023-02-27T01:50:19.710Z,100990.09
2023-02-27T01:53:00.105Z,100993.98
2023-02-27T01:55:32.351Z,101002.08
2023-02-27T01:58:01.225Z,100997.84
2023-02-27T02:00:29.867Z,100999.25
2023-02-27T02:03:35.400Z,100999.77
2023-02-27T02:06:07.374Z,100997.66
2023-02-27T02:08:46.665Z,100998.22
2023-02-27T02:11:19.138Z,100991.89
2023-02-27T02:13:49.970Z,100990.30
2023-02-27T02:16:33.661Z,100986.27
2023-02-27T02:19:22.424Z,100983.05
2023-02-27T02:22:18.753Z,100980.59
2023-02-27T02:25:45.287Z,100984.59
2023-02-27T02:28:57.212Z,100997.77
2023-02-27T02:32:10.055Z,101009.56
2023-02-27T02:35:34.592Z,101018.03
2023-02-27T02:38:05.998Z,101020.53
2023-02-27T02:40:58.439Z,101026.34
2023-02-27T02:44:04.396Z,101019.46
2023-02-27T02:46:46.079Z,101009.95
2023-02-27T02:49:31.132Z,101009.59
2023-02-27T02:52:59.188Z,101013.80
2023-02-27T02:55:48.894Z,101014.19
2023-02-27T02:58:29.392Z,101020.88
2023-02-27T03:01:15.259Z,101021.93
2023-02-27T03:04:12.937Z,101030.05
2023-02-27T03:07:01.031Z,101042.02
2023-02-27T03:09:41.325Z,101055.08
2023-02-27T03:12:16.199Z,101055.45
2023-02-27T03:14:56.658Z,101058.77
2023-02-27T03:17:39.455Z,101057.88
2023-02-27T03:20:14.645Z,101061.59
2023-02-27T03:22:48.051Z,101060.89
2023-02-27T03:25:17.491Z,101060.71
2023-02-27T03:27:55.711Z,101059.12
2023-02-27T03:30:40.873Z,101058.73
2023-02-27T03:33:39.604Z,101045.39
2023-02-27T03:36:58.382Z,101040.80
2023-02-27T03:39:52.597Z,101042.02
2023-02-27T03:42:38.148Z,101039.73
2023-02-27T03:45:57.011Z,101043.27
2023-02-27T03:48:26.093Z,101045.48
2023-02-27T03:50:56.924Z,101038.27
2023-02-27T03:54:02.712Z,101036.86
2023-02-27T03:56:59.315Z,101032.56
2023-02-27T03:59:28.365Z,101033.98
2023-02-27T04:01:59.692Z,101042.42
2023-02-27T04:04:34.045Z,101047.86
2023-02-27T04:08:10.355Z,101050.49
2023-02-27T04:11:06.814Z,101055.62
2023-02-27T04:14:16.252Z,101055.05
2023-02-27T04:16:50.523Z,101059.23
2023-02-27T04:19:44.912Z,101062.63
2023-02-27T04:22:26.303Z,101061.57
2023-02-27T04:25:12.777Z,101060.33
2023-02-27T04:27:50.929Z,101061.39
2023-02-27T04:30:34.593Z,101060.31
2023-02-27T04:33:37.916Z,101058.23
2023-02-27T04:36:26.155Z,101063.67
2023-02-27T04:39:26.394Z,101069.63
2023-02-27T04:42:05.935Z,101075.63
2023-02-27T04:44:37.985Z,101077.58
2023-02-27T04:47:09.755Z,101078.45
2023-02-27T04:49:57.397Z,101077.09
2023-02-27T04:52:46.649Z,101073.20
2023-02-27T04:55:32.120Z,101067.90
2023-02-27T04:58:17.095Z,101072.08
2023-02-27T05:00:59.868Z,101076.33
2023-02-27T05:03:35.997Z,101073.36
2023-02-27T05:06:07.482Z,101081.16
2023-02-27T05:08:59.798Z,101083.98
2023-02-27T05:12:11.300Z,101088.89
2023-02-27T05:14:50.048Z,101091.91
2023-02-27T05:17:28.885Z,101098.27
2023-02-27T05:19:59.488Z,101095.98
2023-02-27T05:23:21.676Z,101093.90
2023-02-27T05:26:01.905Z,101102.69
2023-02-27T05:28:48.888Z,101101.44
2023-02-27T05:31:41.712Z,101100.74
2023-02-27T05:34:24.018Z,101110.98
2023-02-27T05:37:25.437Z,101117.35
2023-02-27T05:39:54.162Z,101123.34
2023-02-27T05:42:36.190Z,101120.55
2023-02-27T05:45:20.389Z,101127.92
2023-02-27T05:48:00.624Z,101135.04
2023-02-27T05:50:33.942Z,101141.43
2023-02-27T05:53:14.126Z,101144.63
2023-02-27T05:55:56.819Z,101144.63
2023-02-27T05:58:41.178Z,101148.36
2023-02-27T06:01:12.613Z,101150.84
2023-02-27T06:03:44.541Z,101147.11
2023-02-27T06:06:17.448Z,101143.09
2023-02-27T06:08:46.370Z,101147.65
2023-02-27T06:11:15.189Z,101148.16
2023-02-27T06:13:43.832Z,101145.72
2023-02-27T06:16:15.133Z,101137.48
2023-02-27T06:18:43.711Z,101139.42
2023-02-27T06:21:14.166Z,101138.19
2023-02-27T06:23:42.737Z,101146.99
2023-02-27T06:26:14.390Z,101152.64
2023-02-27T06:28:42.960Z,101150.86
2023-02-27T06:31:11.749Z,101157.25
2023-02-27T06:33:40.393Z,101157.96
2023-02-27T06:36:09.104Z,101161.52
2023-02-27T06:38:37.824Z,101168.02
2023-02-27T06:41:06.499Z,101171.05
2023-02-27T06:43:36.762Z,101177.91
2023-02-27T06:46:05.615Z,101187.80
2023-02-27T06:48:34.191Z,101185.14
2023-02-27T06:51:03.734Z,101186.40
2023-02-27T06:53:32.280Z,101186.41
2023-02-27T06:56:00.774Z,101184.48
2023-02-27T06:58:29.307Z,101182.21
2023-02-27T07:01:01.170Z,101178.87
2023-02-27T07:03:29.817Z,101182.20
2023-02-27T07:05:59.267Z,101187.34
2023-02-27T07:08:27.799Z,101192.80
2023-02-27T07:10:56.459Z,101194.21
2023-02-27T07:13:25.039Z,101192.95
2023-02-27T07:15:54.227Z,101199.31
2023-02-27T07:18:22.804Z,101194.95
2023-02-27T07:20:52.569Z,101189.36
2023-02-27T07:23:22.865Z,101189.89
2023-02-27T07:25:51.262Z,101185.30
2023-02-27T07:28:19.785Z,101185.30
2023-02-27T07:30:48.361Z,101187.05
2023-02-27T07:33:16.897Z,101193.23
2023-02-27T07:35:45.682Z,101195.52
2023-02-27T07:38:14.259Z,101192.88
2023-02-27T07:40:42.705Z,101189.55
2023-02-27T07:43:11.178Z,101185.89
2023-02-27T07:45:39.744Z,101179.55
2023-02-27T07:48:08.302Z,101177.46
2023-02-27T07:50:37.605Z,101184.88
2023-02-27T07:53:08.165Z,101184.89
2023-02-27T07:55:39.774Z,101188.77
2023-02-27T07:58:08.377Z,101194.25
2023-02-27T08:00:38.436Z,101194.80
2023-02-27T08:03:06.921Z,101195.19
2023-02-27T08:05:36.090Z,101195.01
2023-02-27T08:08:04.546Z,101194.30
2023-02-27T08:10:33.132Z,101192.73
2023-02-27T08:13:01.798Z,101195.73
2023-02-27T08:15:32.844Z,101198.75
2023-02-27T08:18:01.349Z,101196.11
2023-02-27T08:20:29.845Z,101197.37
2023-02-27T08:22:58.682Z,101197.70
2023-02-27T08:25:27.201Z,101198.77
2023-02-27T08:27:56.378Z,101197.36
2023-02-27T08:30:24.876Z,101201.81
2023-02-27T08:32:53.653Z,101201.84
2023-02-27T08:35:23.694Z,101197.63
2023-02-27T08:37:52.198Z,101201.48
2023-02-27T08:40:20.792Z,101204.69
2023-02-27T08:42:51.828Z,101209.47
2023-02-27T08:45:20.257Z,101217.44
2023-02-27T08:47:48.761Z,101224.31
2023-02-27T08:50:17.972Z,101231.94
2023-02-27T08:52:55.814Z,101232.33
2023-02-27T08:55:24.353Z,101235.83
2023-02-27T08:57:52.805Z,101237.08
2023-02-27T09:00:22.358Z,101241.70
2023-02-27T09:02:51.176Z,101247.04
2023-02-27T09:05:19.907Z,101247.06
2023-02-27T09:07:48.426Z,101242.32
2023-02-27T09:10:18.067Z,101246.01
2023-02-27T09:12:46.572Z,101246.71
2023-02-27T09:15:15.562Z,101247.80
2023-02-27T09:17:44.164Z,101247.80
2023-02-27T09:20:13.160Z,101251.52
2023-02-27T09:22:42.786Z,101253.64
2023-02-27T09:25:11.173Z,101257.89
2023-02-27T09:27:39.632Z,101255.56
2023-02-27T09:30:09.738Z,101259.29
2023-02-27T09:32:38.515Z,101264.04
2023-02-27T09:35:09.549Z,101268.98
2023-02-27T09:37:38.072Z,101265.96
2023-02-27T09:40:08.049Z,101261.91
2023-02-27T09:42:46.644Z,101262.95
2023-02-27T09:45:39.468Z,101258.38
2023-02-27T09:48:30.370Z,101264.92
2023-02-27T09:51:00.270Z,101269.80
2023-02-27T09:53:43.485Z,101278.20
2023-02-27T09:56:30.220Z,101279.95
2023-02-27T09:59:44.852Z,101281.52
2023-02-27T10:02:44.536Z,101286.05
2023-02-27T10:05:39.811Z,101289.73
2023-02-27T10:08:17.925Z,101284.41
2023-02-27T10:11:51.648Z,101285.05
2023-02-27T10:14:22.798Z,101289.27
2023-02-27T10:16:52.721Z,101289.23
2023-02-27T10:19:46.608Z,101287.84
2023-02-27T10:22:24.211Z,101289.41
2023-02-27T10:25:29.892Z,101292.61
2023-02-27T10:28:15.687Z,101291.94
2023-02-27T10:30:49.646Z,101296.38
2023-02-27T10:33:56.758Z,101294.60
2023-02-27T10:36:34.194Z,101299.16
2023-02-27T10:39:11.238Z,101285.04
2023-02-27T10:41:40.892Z,101285.95
2023-02-27T10:44:14.767Z,101279.05
2023-02-27T10:46:43.589Z,101277.83
2023-02-27T10:49:19.569Z,101275.09
2023-02-27T10:52:07.932Z,101274.54
2023-02-27T10:54:37.575Z,101275.91
2023-02-27T10:57:33.284Z,101281.02
2023-02-27T11:00:10.320Z,101284.86
2023-02-27T11:02:42.994Z,101281.36
2023-02-27T11:05:38.352Z,101281.61
2023-02-27T11:08:27.916Z,101278.94
2023-02-27T11:11:10.791Z,101280.84
2023-02-27T11:13:42.957Z,101282.11
2023-02-27T11:16:23.721Z,101284.67
2023-02-27T11:18:54.491Z,101288.16
2023-02-27T11:21:30.280Z,101291.36
2023-02-27T11:24:08.697Z,101295.79
2023-02-27T11:26:41.462Z,101294.57
2023-02-27T11:29:23.969Z,101294.23
2023-02-27T11:32:15.661Z,101291.59
2023-02-27T11:34:55.345Z,101300.42
2023-02-27T11:37:38.129Z,101306.90
2023-02-27T11:40:10.902Z,101306.78
2023-02-27T11:42:52.462Z,101301.53
2023-02-27T11:46:04.713Z,101300.36
2023-02-27T11:48:48.728Z,101308.30
2023-02-27T11:51:20.174Z,101320.77
2023-02-27T11:54:09.774Z,101329.10
2023-02-27T11:56:58.620Z,101335.50
2023-02-27T11:59:56.174Z,101340.10
2023-02-27T12:02:55.353Z,101343.25
2023-02-27T12:05:43.022Z,101330.20
2023-02-27T12:08:31.154Z,101326.34
2023-02-27T12:11:19.658Z,101345.89
2023-02-27T12:13:57.306Z,101360.67
2023-02-27T12:17:15.429Z,101360.02
2023-02-27T12:20:12.353Z,101352.06
2023-02-27T12:22:47.247Z,101352.59
2023-02-27T12:26:03.751Z,101361.95
2023-02-27T12:28:54.772Z,101372.16
2023-02-27T12:31:36.804Z,101375.55
2023-02-27T12:34:27.396Z,101384.54
2023-02-27T12:37:13.492Z,101388.39
2023-02-27T12:39:45.525Z,101405.18
2023-02-27T12:42:36.361Z,101400.80
2023-02-27T12:45:07.666Z,101400.83
2023-02-27T12:48:10.083Z,101410.35
2023-02-27T12:50:50.270Z,101415.84
2023-02-27T12:54:14.427Z,101420.24
2023-02-27T12:57:04.453Z,101415.07
2023-02-27T12:59:53.935Z,101416.67
2023-02-27T13:02:40.644Z,101427.83
2023-02-27T13:05:30.176Z,101431.14
2023-02-27T13:08:16.935Z,101429.20
2023-02-27T13:11:08.490Z,101440.48
2023-02-27T13:13:39.772Z,101446.61
2023-02-27T13:16:24.636Z,101456.70
2023-02-27T13:19:12.021Z,101466.17
2023-02-27T13:22:09.882Z,101471.31
2023-02-27T13:24:50.275Z,101476.92
2023-02-27T13:27:48.500Z,101477.98
2023-02-27T13:30:31.915Z,101486.33
2023-02-27T13:33:25.665Z,101497.98
2023-02-27T13:36:24.486Z,101508.88
2023-02-27T13:38:56.978Z,101522.46
2023-02-27T13:41:25.666Z,101527.73
2023-02-27T13:43:57.857Z,101529.19
2023-02-27T13:46:26.976Z,101527.94
2023-02-27T13:49:04.572Z,101528.28
2023-02-27T13:51:36.100Z,101529.54
2023-02-27T13:54:13.774Z,101536.28
2023-02-27T13:56:55.320Z,101533.81
2023-02-27T13:59:36.782Z,101525.96
2023-02-27T14:02:11.442Z,101501.37
2023-02-27T14:04:53.009Z,101502.80
2023-02-27T14:07:26.874Z,101517.39
2023-02-27T14:10:11.753Z,101532.02
2023-02-27T14:12:45.742Z,101539.94
2023-02-27T14:15:17.758Z,101549.11
2023-02-27T14:18:05.848Z,101554.55
2023-02-27T14:20:48.964Z,101553.40
2023-02-27T14:23:21.055Z,101559.19
2023-02-27T14:26:18.829Z,101567.68
2023-02-27T14:28:58.219Z,101577.14
2023-02-27T14:31:37.615Z,101585.09
2023-02-27T14:34:06.865Z,101590.41
2023-02-27T14:36:51.748Z,101597.22
2023-02-27T14:39:36.720Z,101601.84
2023-02-27T14:42:50.083Z,101607.09
2023-02-27T14:45:24.503Z,101609.77
2023-02-27T14:47:53.606Z,101607.58
2023-02-27T14:50:39.171Z,101610.53
2023-02-27T14:53:21.726Z,101605.36
2023-02-27T14:55:56.516Z,101604.80
2023-02-27T14:58:26.509Z,101607.42
2023-02-27T15:01:10.100Z,101614.69
2023-02-27T15:03:47.432Z,101612.57
2023-02-27T15:06:45.465Z,101615.35
2023-02-27T15:09:33.553Z,101623.19
2023-02-27T15:12:04.412Z,101630.09
2023-02-27T15:14:39.961Z,101627.84
2023-02-27T15:17:18.595Z,101632.95
2023-02-27T15:19:59.333Z,101638.34
2023-02-27T15:22:39.732Z,101640.59
2023-02-27T15:25:33.532Z,101642.72
2023-02-27T15:28:06.357Z,101652.02
2023-02-27T15:30:34.899Z,101657.67
2023-02-27T15:33:03.506Z,101664.58
2023-02-27T15:35:43.364Z,101666.52
2023-02-27T15:38:33.832Z,101671.98
2023-02-27T15:41:04.356Z,101672.85
2023-02-27T15:43:33.380Z,101678.22
2023-02-27T15:46:02.027Z,101682.09
2023-02-27T15:48:32.402Z,101692.32
2023-02-27T15:51:05.120Z,101692.72
2023-02-27T15:53:34.343Z,101700.30
2023-02-27T15:56:11.629Z,101699.33
2023-02-27T21:54:03.317Z,102129.88
2023-02-27T21:56:31.866Z,102130.69
2023-02-27T21:59:02.232Z,102130.02
2023-02-27T22:01:32.156Z,102128.55
2023-02-27T22:04:02.096Z,102134.72
2023-02-27T22:06:32.529Z,102136.56
2023-02-27T22:09:05.213Z,102143.83
2023-02-27T22:11:35.189Z,102146.09
2023-02-27T22:14:06.197Z,102144.42
2023-02-27T22:16:35.139Z,102150.71
2023-02-27T22:19:08.729Z,102153.09
2023-02-27T22:21:38.560Z,102155.13
2023-02-27T22:24:08.331Z,102160.17
2023-02-27T22:26:37.791Z,102163.25
2023-02-27T22:29:06.783Z,102160.66
2023-02-27T22:31:38.547Z,102162.11
2023-02-27T22:34:18.203Z,102161.98
2023-02-27T22:36:48.866Z,102159.85
2023-02-27T22:39:17.353Z,102165.83
2023-02-27T22:41:46.274Z,102171.33
2023-02-27T22:44:15.991Z,102177.23
2023-02-27T22:46:49.953Z,102181.92
2023-02-27T22:49:24.195Z,102180.16
2023-02-27T22:51:53.169Z,102182.27
2023-02-27T22:54:23.135Z,102182.44
2023-02-27T22:56:53.519Z,102181.89
2023-02-27T22:59:23.238Z,102179.15
2023-02-27T23:01:52.213Z,102178.59
2023-02-27T23:04:22.387Z,102179.20
2023-02-27T23:06:52.710Z,102178.77
2023-02-27T23:09:25.404Z,102176.11
2023-02-27T23:11:55.610Z,102179.67
2023-02-27T23:14:24.130Z,102180.32
2023-02-27T23:16:52.651Z,102183.13
2023-02-27T23:19:22.279Z,102183.56
2023-02-27T23:21:50.662Z,102186.27
2023-02-27T23:24:19.700Z,102188.55
2023-02-27T23:26:51.325Z,102192.31
2023-02-27T23:29:21.106Z,102196.80
2023-02-27T23:31:50.036Z,102195.92
2023-02-27T23:34:18.563Z,102194.97
2023-02-27T23:36:46.955Z,102198.09
2023-02-27T23:39:15.305Z,102204.45
2023-02-27T23:41:43.783Z,102207.23
2023-02-27T23:44:30.629Z,102207.20
2023-02-27T23:46:59.061Z,102209.21
2023-02-27T23:49:30.344Z,102210.34
2023-02-27T23:51:58.759Z,102215.98
2023-02-27T23:54:27.198Z,102218.72
2023-02-27T23:56:55.638Z,102225.52
2023-02-27T23:59:28.343Z,102225.23
